sensor_id;sensor_type;location;lat;lon;timestamp;pressure;altitude;pressure_sealevel;temperature;humidity
5298;BME280;14738;42.668;23.250;2023-08-31T00:01:11;48352.59;;;-141.90;45.98
5298;BME280;14738;42.668;23.250;2023-08-31T00:03:37;48412.13;;;-141.90;45.31
5298;BME280;14738;42.668;23.250;2023-08-31T00:06:02;48380.38;;;-141.90;45.32
5298;BME280;14738;42.668;23.250;2023-08-31T00:08:33;48368.47;;;-141.90;46.08
5298;BME280;14738;42.668;23.250;2023-08-31T00:11:00;48364.50;;;-141.90;46.61
5298;BME280;14738;42.668;23.250;2023-08-31T00:13:26;48352.59;;;-141.90;46.12
5298;BME280;14738;42.668;23.250;2023-08-31T00:15:55;48360.53;;;-141.90;46.67
5298;BME280;14738;42.668;23.250;2023-08-31T00:18:25;48346.63;;;-141.90;46.74
5298;BME280;14738;42.668;23.250;2023-08-31T00:20:51;48364.50;;;-141.90;46.82
5298;BME280;14738;42.668;23.250;2023-08-31T00:23:17;48334.72;;;-141.90;47.10
5298;BME280;14738;42.668;23.250;2023-08-31T00:25:44;48348.63;;;-141.90;46.52
5298;BME280;14738;42.668;23.250;2023-08-31T00:28:09;48354.56;;;-141.90;47.20
5298;BME280;14738;42.668;23.250;2023-08-31T00:30:35;48408.16;;;-141.90;47.46
5298;BME280;14738;42.668;23.250;2023-08-31T00:33:01;48366.47;;;-141.90;46.64
5298;BME280;14738;42.668;23.250;2023-08-31T00:35:26;48364.50;;;-141.90;47.06
5298;BME280;14738;42.668;23.250;2023-08-31T00:37:53;48388.31;;;-141.90;46.58
5298;BME280;14738;42.668;23.250;2023-08-31T00:40:23;48372.44;;;-141.90;46.18
5298;BME280;14738;42.668;23.250;2023-08-31T00:42:48;48380.38;;;-141.90;46.13
5298;BME280;14738;42.668;23.250;2023-08-31T00:45:14;48358.53;;;-141.90;46.45
5298;BME280;14738;42.668;23.250;2023-08-31T00:47:39;48400.22;;;-141.90;46.28
5298;BME280;14738;42.668;23.250;2023-08-31T00:50:06;48370.44;;;-141.90;46.08
5298;BME280;14738;42.668;23.250;2023-08-31T00:52:32;48358.53;;;-141.90;46.84
5298;BME280;14738;42.668;23.250;2023-08-31T00:54:58;48362.50;;;-141.90;46.41
5298;BME280;14738;42.668;23.250;2023-08-31T00:57:23;48406.19;;;-141.90;46.59
5298;BME280;14738;42.668;23.250;2023-08-31T00:59:51;48414.13;;;-141.90;46.48
5298;BME280;14738;42.668;23.250;2023-08-31T01:02:30;48334.72;;;-141.90;46.10
5298;BME280;14738;42.668;23.250;2023-08-31T01:08:18;48390.31;;;-141.90;47.18
5298;BME280;14738;42.668;23.250;2023-08-31T01:13:23;48376.41;;;-141.90;47.04
5298;BME280;14738;42.668;23.250;2023-08-31T01:15:53;48404.19;;;-141.90;46.89
5298;BME280;14738;42.668;23.250;2023-08-31T01:18:21;48350.59;;;-141.90;46.99
5298;BME280;14738;42.668;23.250;2023-08-31T01:23:55;48392.28;;;-141.90;47.06
5298;BME280;14738;42.668;23.250;2023-08-31T01:26:24;48378.38;;;-141.90;47.38
5298;BME280;14738;42.668;23.250;2023-08-31T01:28:51;48378.38;;;-141.90;46.67
5298;BME280;14738;42.668;23.250;2023-08-31T01:31:17;48400.22;;;-141.90;46.96
5298;BME280;14738;42.668;23.250;2023-08-31T01:33:43;48390.31;;;-141.90;46.48
5298;BME280;14738;42.668;23.250;2023-08-31T01:36:16;48402.22;;;-141.90;46.79
5298;BME280;14738;42.668;23.250;2023-08-31T01:39:07;48386.34;;;-141.90;47.30
5298;BME280;14738;42.668;23.250;2023-08-31T01:41:37;48394.28;;;-141.90;47.29
5298;BME280;14738;42.668;23.250;2023-08-31T01:44:08;48356.56;;;-141.90;47.95
5298;BME280;14738;42.668;23.250;2023-08-31T01:46:34;48390.31;;;-141.90;47.60
5298;BME280;14738;42.668;23.250;2023-08-31T01:49:00;48366.47;;;-141.90;47.42
5298;BME280;14738;42.668;23.250;2023-08-31T01:51:25;48350.59;;;-141.90;48.14
5298;BME280;14738;42.668;23.250;2023-08-31T01:53:51;48350.59;;;-141.90;48.77
5298;BME280;14738;42.668;23.250;2023-08-31T01:56:17;48364.50;;;-141.90;50.15
5298;BME280;14738;42.668;23.250;2023-08-31T01:58:42;48350.59;;;-141.90;49.05
5298;BME280;14738;42.668;23.250;2023-08-31T02:01:13;48394.28;;;-141.90;49.43
5298;BME280;14738;42.668;23.250;2023-08-31T02:03:38;48378.38;;;-141.90;49.56
5298;BME280;14738;42.668;23.250;2023-08-31T02:06:04;48344.63;;;-141.90;49.56
5298;BME280;14738;42.668;23.250;2023-08-31T02:08:29;48370.44;;;-141.90;49.16
5298;BME280;14738;42.668;23.250;2023-08-31T02:10:57;48364.50;;;-141.90;50.03
5298;BME280;14738;42.668;23.250;2023-08-31T02:13:23;48370.44;;;-141.90;49.64
5298;BME280;14738;42.668;23.250;2023-08-31T02:15:52;48334.72;;;-141.90;49.65
5298;BME280;14738;42.668;23.250;2023-08-31T02:18:18;48374.41;;;-141.90;50.54
5298;BME280;14738;42.668;23.250;2023-08-31T02:20:43;48340.66;;;-141.90;50.36
5298;BME280;14738;42.668;23.250;2023-08-31T02:23:09;48386.34;;;-141.90;50.10
5298;BME280;14738;42.668;23.250;2023-08-31T02:25:34;48362.50;;;-141.90;50.29
5298;BME280;14738;42.668;23.250;2023-08-31T02:28:02;48352.59;;;-141.90;50.27
5298;BME280;14738;42.668;23.250;2023-08-31T02:30:28;48356.56;;;-141.90;50.20
5298;BME280;14738;42.668;23.250;2023-08-31T02:32:54;48380.38;;;-141.90;50.64
5298;BME280;14738;42.668;23.250;2023-08-31T02:35:19;48376.41;;;-141.90;50.28
5298;BME280;14738;42.668;23.250;2023-08-31T02:37:44;48366.47;;;-141.90;50.60
5298;BME280;14738;42.668;23.250;2023-08-31T02:40:10;48342.66;;;-141.90;50.39
5298;BME280;14738;42.668;23.250;2023-08-31T02:42:36;48372.44;;;-141.90;50.09
5298;BME280;14738;42.668;23.250;2023-08-31T02:45:01;48358.53;;;-141.90;50.40
5298;BME280;14738;42.668;23.250;2023-08-31T02:47:27;48368.47;;;-141.90;51.90
5298;BME280;14738;42.668;23.250;2023-08-31T02:49:53;48362.50;;;-141.90;51.71
5298;BME280;14738;42.668;23.250;2023-08-31T02:52:21;48366.47;;;-141.90;52.05
5298;BME280;14738;42.668;23.250;2023-08-31T02:54:46;48338.69;;;-141.90;52.39
5298;BME280;14738;42.668;23.250;2023-08-31T02:57:11;48374.41;;;-141.90;51.65
5298;BME280;14738;42.668;23.250;2023-08-31T02:59:37;48338.69;;;-141.90;52.13
5298;BME280;14738;42.668;23.250;2023-08-31T03:02:03;48350.59;;;-141.90;51.86
5298;BME280;14738;42.668;23.250;2023-08-31T03:04:29;48356.56;;;-141.90;51.11
5298;BME280;14738;42.668;23.250;2023-08-31T03:06:54;48358.53;;;-141.90;51.61
5298;BME280;14738;42.668;23.250;2023-08-31T03:09:20;48332.72;;;-141.90;51.89
5298;BME280;14738;42.668;23.250;2023-08-31T03:11:46;48366.47;;;-141.90;51.57
5298;BME280;14738;42.668;23.250;2023-08-31T03:14:12;48350.59;;;-141.90;52.06
5298;BME280;14738;42.668;23.250;2023-08-31T03:16:37;48346.63;;;-141.90;52.20
5298;BME280;14738;42.668;23.250;2023-08-31T03:19:05;48348.63;;;-141.90;52.36
5298;BME280;14738;42.668;23.250;2023-08-31T03:21:34;48358.53;;;-141.90;52.72
5298;BME280;14738;42.668;23.250;2023-08-31T03:23:59;48348.63;;;-141.90;51.57
5298;BME280;14738;42.668;23.250;2023-08-31T03:26:25;48362.50;;;-141.90;51.77
5298;BME280;14738;42.668;23.250;2023-08-31T03:28:50;48362.50;;;-141.90;50.86
5298;BME280;14738;42.668;23.250;2023-08-31T03:31:19;48378.38;;;-141.90;51.33
5298;BME280;14738;42.668;23.250;2023-08-31T03:33:44;48394.28;;;-141.90;51.80
5298;BME280;14738;42.668;23.250;2023-08-31T03:36:09;48362.50;;;-141.90;51.61
5298;BME280;14738;42.668;23.250;2023-08-31T03:38:35;48358.53;;;-141.90;51.53
5298;BME280;14738;42.668;23.250;2023-08-31T03:41:04;48326.78;;;-141.90;52.11
5298;BME280;14738;42.668;23.250;2023-08-31T03:43:32;48362.50;;;-141.90;52.09
5298;BME280;14738;42.668;23.250;2023-08-31T03:46:00;48350.59;;;-141.90;52.09
5298;BME280;14738;42.668;23.250;2023-08-31T03:48:26;48354.56;;;-141.90;52.03
5298;BME280;14738;42.668;23.250;2023-08-31T03:50:52;48338.69;;;-141.90;52.14
5298;BME280;14738;42.668;23.250;2023-08-31T03:53:18;48358.53;;;-141.90;51.90
5298;BME280;14738;42.668;23.250;2023-08-31T03:55:44;48368.47;;;-141.90;51.33
5298;BME280;14738;42.668;23.250;2023-08-31T03:58:10;48374.41;;;-141.90;51.04
5298;BME280;14738;42.668;23.250;2023-08-31T04:00:36;48358.53;;;-141.90;51.03
5298;BME280;14738;42.668;23.250;2023-08-31T04:03:02;48362.50;;;-141.90;51.27
5298;BME280;14738;42.668;23.250;2023-08-31T04:05:32;48382.34;;;-141.90;50.52
5298;BME280;14738;42.668;23.250;2023-08-31T04:07:58;48398.25;;;-141.90;48.65
5298;BME280;14738;42.668;23.250;2023-08-31T04:10:23;48414.13;;;-141.90;47.20
5298;BME280;14738;42.668;23.250;2023-08-31T04:12:50;48420.09;;;-141.90;45.93
5298;BME280;14738;42.668;23.250;2023-08-31T04:15:16;48420.09;;;-141.90;44.88
5298;BME280;14738;42.668;23.250;2023-08-31T04:17:41;48400.22;;;-141.90;43.70
5298;BME280;14738;42.668;23.250;2023-08-31T04:20:07;48477.66;;;-141.90;42.95
5298;BME280;14738;42.668;23.250;2023-08-31T04:22:33;48453.81;;;-141.90;40.99
5298;BME280;14738;42.668;23.250;2023-08-31T04:24:59;48435.97;;;-141.90;40.12
5298;BME280;14738;42.668;23.250;2023-08-31T04:27:24;48473.69;;;-141.90;39.70
5298;BME280;14738;42.668;23.250;2023-08-31T04:29:55;48517.34;;;-141.90;38.29
5298;BME280;14738;42.668;23.250;2023-08-31T04:32:20;48491.56;;;-141.90;37.60
5298;BME280;14738;42.668;23.250;2023-08-31T04:34:46;48483.59;;;-141.90;36.60
5298;BME280;14738;42.668;23.250;2023-08-31T04:37:11;48545.16;;;-141.90;35.03
5298;BME280;14738;42.668;23.250;2023-08-31T04:39:37;48539.19;;;-141.90;35.03
5298;BME280;14738;42.668;23.250;2023-08-31T04:42:02;48521.34;;;-141.90;34.63
5298;BME280;14738;42.668;23.250;2023-08-31T04:44:28;48519.34;;;-141.90;35.88
5298;BME280;14738;42.668;23.250;2023-08-31T04:46:53;48509.41;;;-141.90;33.92
5298;BME280;14738;42.668;23.250;2023-08-31T04:49:20;48574.94;;;-141.90;33.65
5298;BME280;14738;42.668;23.250;2023-08-31T04:51:45;48590.81;;;-141.90;33.53
5298;BME280;14738;42.668;23.250;2023-08-31T04:54:11;48624.56;;;-141.90;33.44
5298;BME280;14738;42.668;23.250;2023-08-31T04:56:37;48664.28;;;-141.90;30.29
5298;BME280;14738;42.668;23.250;2023-08-31T04:59:02;48608.69;;;-141.90;30.29
5298;BME280;14738;42.668;23.250;2023-08-31T05:01:28;48678.16;;;-141.90;30.15
5298;BME280;14738;42.668;23.250;2023-08-31T05:03:53;48676.19;;;-141.90;30.01
5298;BME280;14738;42.668;23.250;2023-08-31T05:06:19;48688.09;;;-141.90;30.10
5298;BME280;14738;42.668;23.250;2023-08-31T05:08:46;48715.91;;;-141.90;29.28
5298;BME280;14738;42.668;23.250;2023-08-31T05:11:12;48739.72;;;-141.90;28.52
5298;BME280;14738;42.668;23.250;2023-08-31T05:13:37;48755.59;;;-141.90;28.30
5298;BME280;14738;42.668;23.250;2023-08-31T05:16:03;48805.25;;;-141.90;27.82
5298;BME280;14738;42.668;23.250;2023-08-31T05:18:29;48858.84;;;-141.90;27.05
5298;BME280;14738;42.668;23.250;2023-08-31T05:20:54;48946.19;;;-141.90;25.32
5298;BME280;14738;42.668;23.250;2023-08-31T05:23:19;48775.47;;;-141.90;25.53
5298;BME280;14738;42.668;23.250;2023-08-31T05:25:45;48779.44;;;-141.90;26.75
5298;BME280;14738;42.668;23.250;2023-08-31T05:28:11;48713.91;;;-141.90;27.82
5298;BME280;14738;42.668;23.250;2023-08-31T05:30:36;48719.88;;;-141.90;28.22
5298;BME280;14738;42.668;23.250;2023-08-31T05:33:02;48785.38;;;-141.90;27.08
5298;BME280;14738;42.668;23.250;2023-08-31T05:35:36;48819.13;;;-141.90;25.61
5298;BME280;14738;42.668;23.250;2023-08-31T05:38:01;48890.59;;;-141.90;25.14
5298;BME280;14738;42.668;23.250;2023-08-31T05:40:28;48848.91;;;-141.90;25.60
5298;BME280;14738;42.668;23.250;2023-08-31T05:42:53;48831.03;;;-141.90;25.75
5298;BME280;14738;42.668;23.250;2023-08-31T05:45:18;48735.75;;;-141.90;26.41
5298;BME280;14738;42.668;23.250;2023-08-31T05:47:44;48719.88;;;-141.90;27.47
5298;BME280;14738;42.668;23.250;2023-08-31T05:50:09;48711.91;;;-141.90;27.18
5298;BME280;14738;42.668;23.250;2023-08-31T05:52:35;48690.09;;;-141.90;27.55
5298;BME280;14738;42.668;23.250;2023-08-31T05:55:00;48700.00;;;-141.90;26.73
5298;BME280;14738;42.668;23.250;2023-08-31T05:57:26;48761.56;;;-141.90;26.97
5298;BME280;14738;42.668;23.250;2023-08-31T05:59:53;48761.56;;;-141.90;27.25
5298;BME280;14738;42.668;23.250;2023-08-31T06:02:18;48846.94;;;-141.90;25.42
5298;BME280;14738;42.668;23.250;2023-08-31T06:04:43;48894.59;;;-141.90;24.31
5298;BME280;14738;42.668;23.250;2023-08-31T06:07:09;48831.03;;;-141.90;24.44
5298;BME280;14738;42.668;23.250;2023-08-31T06:09:34;48842.97;;;-141.90;25.15
5298;BME280;14738;42.668;23.250;2023-08-31T06:12:00;48874.72;;;-141.90;24.59
5298;BME280;14738;42.668;23.250;2023-08-31T06:14:25;48918.41;;;-141.90;22.97
5298;BME280;14738;42.668;23.250;2023-08-31T06:16:51;48938.25;;;-141.90;23.08
5298;BME280;14738;42.668;23.250;2023-08-31T06:19:17;48850.91;;;-141.90;24.04
5298;BME280;14738;42.668;23.250;2023-08-31T06:21:43;48950.19;;;-141.90;23.61
5298;BME280;14738;42.668;23.250;2023-08-31T06:24:08;48918.41;;;-141.90;23.92
5298;BME280;14738;42.668;23.250;2023-08-31T06:26:38;48882.66;;;-141.90;23.88
5298;BME280;14738;42.668;23.250;2023-08-31T06:29:03;48866.78;;;-141.90;24.13
5298;BME280;14738;42.668;23.250;2023-08-31T06:31:29;48910.47;;;-141.90;24.13
5298;BME280;14738;42.668;23.250;2023-08-31T06:33:54;48914.44;;;-141.90;23.04
5298;BME280;14738;42.668;23.250;2023-08-31T06:36:20;48898.56;;;-141.90;23.88
5298;BME280;14738;42.668;23.250;2023-08-31T06:38:45;48989.88;;;-141.90;22.79
5298;BME280;14738;42.668;23.250;2023-08-31T06:41:11;48918.41;;;-141.90;23.52
5298;BME280;14738;42.668;23.250;2023-08-31T06:43:36;48912.44;;;-141.90;23.79
5298;BME280;14738;42.668;23.250;2023-08-31T06:46:02;48866.78;;;-141.90;24.51
5298;BME280;14738;42.668;23.250;2023-08-31T06:48:27;48819.13;;;-141.90;24.51
5298;BME280;14738;42.668;23.250;2023-08-31T06:51:03;48848.91;;;-141.90;24.34
5298;BME280;14738;42.668;23.250;2023-08-31T06:53:30;48833.03;;;-141.90;25.33
5298;BME280;14738;42.668;23.250;2023-08-31T06:55:56;48791.34;;;-141.90;26.06
5298;BME280;14738;42.668;23.250;2023-08-31T06:58:22;48783.41;;;-141.90;25.81
5298;BME280;14738;42.668;23.250;2023-08-31T07:00:47;48727.81;;;-141.90;26.69
5298;BME280;14738;42.668;23.250;2023-08-31T07:03:16;48705.97;;;-141.90;27.94
5298;BME280;14738;42.668;23.250;2023-08-31T07:05:42;48664.28;;;-141.90;28.15
5298;BME280;14738;42.668;23.250;2023-08-31T07:08:08;48682.13;;;-141.90;27.86
5298;BME280;14738;42.668;23.250;2023-08-31T07:10:34;48707.94;;;-141.90;28.64
5298;BME280;14738;42.668;23.250;2023-08-31T07:13:03;48723.84;;;-141.90;28.09
5298;BME280;14738;42.668;23.250;2023-08-31T07:15:29;48707.94;;;-141.90;28.57
5298;BME280;14738;42.668;23.250;2023-08-31T07:17:54;48680.16;;;-141.90;28.13
5298;BME280;14738;42.668;23.250;2023-08-31T07:20:20;48672.22;;;-141.90;27.88
5298;BME280;14738;42.668;23.250;2023-08-31T07:22:45;48553.09;;;-141.90;28.57
5298;BME280;14738;42.668;23.250;2023-08-31T07:25:10;48666.25;;;-141.90;29.06
5298;BME280;14738;42.668;23.250;2023-08-31T07:27:37;48672.22;;;-141.90;28.42
5298;BME280;14738;42.668;23.250;2023-08-31T07:30:03;48642.44;;;-141.90;28.45
5298;BME280;14738;42.668;23.250;2023-08-31T07:32:29;48700.00;;;-141.90;28.73
5298;BME280;14738;42.668;23.250;2023-08-31T07:34:54;48684.13;;;-141.90;28.40
5298;BME280;14738;42.668;23.250;2023-08-31T07:37:20;48719.88;;;-141.90;27.95
5298;BME280;14738;42.668;23.250;2023-08-31T07:39:45;48676.19;;;-141.90;26.54
5298;BME280;14738;42.668;23.250;2023-08-31T07:42:13;48711.91;;;-141.90;25.86
5298;BME280;14738;42.668;23.250;2023-08-31T07:44:38;48715.91;;;-141.90;26.20
5298;BME280;14738;42.668;23.250;2023-08-31T07:47:04;48727.81;;;-141.90;26.77
5298;BME280;14738;42.668;23.250;2023-08-31T07:49:30;48757.59;;;-141.90;26.38
5298;BME280;14738;42.668;23.250;2023-08-31T07:51:56;48715.91;;;-141.90;26.30
5298;BME280;14738;42.668;23.250;2023-08-31T07:54:29;48755.59;;;-141.90;26.22
5298;BME280;14738;42.668;23.250;2023-08-31T07:56:54;48755.59;;;-141.90;26.15
5298;BME280;14738;42.668;23.250;2023-08-31T07:59:20;48743.69;;;-141.90;26.21
5298;BME280;14738;42.668;23.250;2023-08-31T08:01:46;48707.94;;;-141.90;26.26
5298;BME280;14738;42.668;23.250;2023-08-31T08:04:11;48807.22;;;-141.90;26.26
5298;BME280;14738;42.668;23.250;2023-08-31T08:06:37;48763.53;;;-141.90;26.36
5298;BME280;14738;42.668;23.250;2023-08-31T08:09:03;48751.63;;;-141.90;25.80
5298;BME280;14738;42.668;23.250;2023-08-31T08:11:30;48741.69;;;-141.90;27.51
5298;BME280;14738;42.668;23.250;2023-08-31T08:13:55;48705.97;;;-141.90;26.24
5298;BME280;14738;42.668;23.250;2023-08-31T08:16:23;48690.09;;;-141.90;26.60
5298;BME280;14738;42.668;23.250;2023-08-31T08:18:50;48703.97;;;-141.90;28.13
5298;BME280;14738;42.668;23.250;2023-08-31T08:21:15;48660.31;;;-141.90;26.36
5298;BME280;14738;42.668;23.250;2023-08-31T08:23:40;48735.75;;;-141.90;25.82
5298;BME280;14738;42.668;23.250;2023-08-31T08:26:06;48743.69;;;-141.90;24.72
5298;BME280;14738;42.668;23.250;2023-08-31T08:28:31;48727.81;;;-141.90;23.88
5298;BME280;14738;42.668;23.250;2023-08-31T08:31:00;48769.50;;;-141.90;24.57
5298;BME280;14738;42.668;23.250;2023-08-31T08:33:26;48733.75;;;-141.90;25.75
5298;BME280;14738;42.668;23.250;2023-08-31T08:35:56;48725.81;;;-141.90;25.17
5298;BME280;14738;42.668;23.250;2023-08-31T08:38:21;48749.66;;;-141.90;25.23
5298;BME280;14738;42.668;23.250;2023-08-31T08:40:47;48737.72;;;-141.90;23.93
5298;BME280;14738;42.668;23.250;2023-08-31T08:43:13;48713.91;;;-141.90;23.86
5298;BME280;14738;42.668;23.250;2023-08-31T08:45:39;48719.88;;;-141.90;23.23
5298;BME280;14738;42.668;23.250;2023-08-31T08:48:07;48735.75;;;-141.90;24.10
5298;BME280;14738;42.668;23.250;2023-08-31T08:50:35;48745.69;;;-141.90;23.53
5298;BME280;14738;42.668;23.250;2023-08-31T08:53:03;48676.19;;;-141.90;24.51
5298;BME280;14738;42.668;23.250;2023-08-31T08:55:28;48711.91;;;-141.90;24.25
5298;BME280;14738;42.668;23.250;2023-08-31T08:57:54;48698.03;;;-141.90;25.31
5298;BME280;14738;42.668;23.250;2023-08-31T09:00:19;48743.69;;;-141.90;23.32
5298;BME280;14738;42.668;23.250;2023-08-31T09:02:45;48727.81;;;-141.90;23.51
5298;BME280;14738;42.668;23.250;2023-08-31T09:05:11;48781.41;;;-141.90;23.35
5298;BME280;14738;42.668;23.250;2023-08-31T09:07:37;48765.53;;;-141.90;23.96
5298;BME280;14738;42.668;23.250;2023-08-31T09:10:03;48767.50;;;-141.90;23.33
5298;BME280;14738;42.668;23.250;2023-08-31T09:12:29;48763.53;;;-141.90;23.99
5298;BME280;14738;42.668;23.250;2023-08-31T09:15:00;48751.63;;;-141.90;24.38
5298;BME280;14738;42.668;23.250;2023-08-31T09:17:37;48803.25;;;-141.90;23.48
5298;BME280;14738;42.668;23.250;2023-08-31T09:20:03;48799.28;;;-141.90;24.00
5298;BME280;14738;42.668;23.250;2023-08-31T09:22:29;48819.13;;;-141.90;23.66
5298;BME280;14738;42.668;23.250;2023-08-31T09:24:55;48765.53;;;-141.90;23.80
5298;BME280;14738;42.668;23.250;2023-08-31T09:27:22;48791.34;;;-141.90;23.86
5298;BME280;14738;42.668;23.250;2023-08-31T09:29:54;48797.28;;;-141.90;23.05
5298;BME280;14738;42.668;23.250;2023-08-31T09:32:20;48799.28;;;-141.90;23.15
5298;BME280;14738;42.668;23.250;2023-08-31T09:34:45;48866.78;;;-141.90;23.14
5298;BME280;14738;42.668;23.250;2023-08-31T09:37:12;48842.97;;;-141.90;23.77
5298;BME280;14738;42.668;23.250;2023-08-31T09:39:41;48787.38;;;-141.90;23.41
5298;BME280;14738;42.668;23.250;2023-08-31T09:42:08;48825.09;;;-141.90;22.35
5298;BME280;14738;42.668;23.250;2023-08-31T09:44:34;48795.31;;;-141.90;21.94
5298;BME280;14738;42.668;23.250;2023-08-31T09:47:00;48612.66;;;-141.90;24.13
5298;BME280;14738;42.668;23.250;2023-08-31T09:49:26;48783.41;;;-141.90;22.69
5298;BME280;14738;42.668;23.250;2023-08-31T09:51:52;48795.31;;;-141.90;21.97
5298;BME280;14738;42.668;23.250;2023-08-31T09:54:21;48771.47;;;-141.90;22.41
5298;BME280;14738;42.668;23.250;2023-08-31T09:56:52;48779.44;;;-141.90;23.36
5298;BME280;14738;42.668;23.250;2023-08-31T09:59:20;48773.47;;;-141.90;22.08
5298;BME280;14738;42.668;23.250;2023-08-31T10:01:45;48755.59;;;-141.90;21.99
5298;BME280;14738;42.668;23.250;2023-08-31T10:04:12;48795.31;;;-141.90;21.61
5298;BME280;14738;42.668;23.250;2023-08-31T10:06:42;48775.47;;;-141.90;22.31
5298;BME280;14738;42.668;23.250;2023-08-31T10:09:08;48771.47;;;-141.90;21.82
5298;BME280;14738;42.668;23.250;2023-08-31T10:11:37;48755.59;;;-141.90;20.91
5298;BME280;14738;42.668;23.250;2023-08-31T10:14:03;48779.44;;;-141.90;21.78
5298;BME280;14738;42.668;23.250;2023-08-31T10:16:29;48791.34;;;-141.90;22.31
5298;BME280;14738;42.668;23.250;2023-08-31T10:18:56;48789.34;;;-141.90;21.54
5298;BME280;14738;42.668;23.250;2023-08-31T10:21:22;48819.13;;;-141.90;21.45
5298;BME280;14738;42.668;23.250;2023-08-31T10:23:49;48856.84;;;-141.90;21.32
5298;BME280;14738;42.668;23.250;2023-08-31T10:26:28;48779.44;;;-141.90;21.81
5298;BME280;14738;42.668;23.250;2023-08-31T10:28:54;48751.63;;;-141.90;21.78
5298;BME280;14738;42.668;23.250;2023-08-31T10:31:20;48767.50;;;-141.90;21.50
5298;BME280;14738;42.668;23.250;2023-08-31T10:33:59;48791.34;;;-141.90;21.78
5298;BME280;14738;42.668;23.250;2023-08-31T10:36:41;48807.22;;;-141.90;23.20
5298;BME280;14738;42.668;23.250;2023-08-31T10:39:17;48771.47;;;-141.90;22.41
5298;BME280;14738;42.668;23.250;2023-08-31T10:41:53;48801.25;;;-141.90;22.18
5298;BME280;14738;42.668;23.250;2023-08-31T10:44:24;48815.16;;;-141.90;21.97
5298;BME280;14738;42.668;23.250;2023-08-31T10:46:51;48799.28;;;-141.90;22.03
5298;BME280;14738;42.668;23.250;2023-08-31T10:49:19;48831.03;;;-141.90;21.76
5298;BME280;14738;42.668;23.250;2023-08-31T10:51:46;48819.13;;;-141.90;21.83
5298;BME280;14738;42.668;23.250;2023-08-31T10:54:20;48807.22;;;-141.90;22.64
5298;BME280;14738;42.668;23.250;2023-08-31T10:59:26;48785.38;;;-141.90;22.72
5298;BME280;14738;42.668;23.250;2023-08-31T11:02:06;48690.09;;;-141.90;23.43
5298;BME280;14738;42.668;23.250;2023-08-31T11:04:52;48723.84;;;-141.90;24.32
5298;BME280;14738;42.668;23.250;2023-08-31T11:07:19;48702.00;;;-141.90;24.02
5298;BME280;14738;42.668;23.250;2023-08-31T11:09:46;48672.22;;;-141.90;24.99
5298;BME280;14738;42.668;23.250;2023-08-31T11:12:12;48688.09;;;-141.90;24.31
5298;BME280;14738;42.668;23.250;2023-08-31T11:14:38;48703.97;;;-141.90;24.13
5298;BME280;14738;42.668;23.250;2023-08-31T11:17:04;48709.94;;;-141.90;25.23
5298;BME280;14738;42.668;23.250;2023-08-31T11:19:34;48672.22;;;-141.90;24.19
5298;BME280;14738;42.668;23.250;2023-08-31T11:22:03;48696.03;;;-141.90;24.19
5298;BME280;14738;42.668;23.250;2023-08-31T11:24:30;48698.03;;;-141.90;23.91
5298;BME280;14738;42.668;23.250;2023-08-31T11:26:56;48715.91;;;-141.90;23.32
5298;BME280;14738;42.668;23.250;2023-08-31T11:29:21;48731.78;;;-141.90;23.96
5298;BME280;14738;42.668;23.250;2023-08-31T11:31:47;48739.72;;;-141.90;23.35
5298;BME280;14738;42.668;23.250;2023-08-31T11:34:16;48779.44;;;-141.90;22.75
5298;BME280;14738;42.668;23.250;2023-08-31T11:36:44;48727.81;;;-141.90;23.84
5298;BME280;14738;42.668;23.250;2023-08-31T11:39:10;48751.63;;;-141.90;23.50
5298;BME280;14738;42.668;23.250;2023-08-31T11:41:36;48723.84;;;-141.90;24.48
5298;BME280;14738;42.668;23.250;2023-08-31T11:44:09;48763.53;;;-141.90;24.51
5298;BME280;14738;42.668;23.250;2023-08-31T11:46:36;48727.81;;;-141.90;25.20
5298;BME280;14738;42.668;23.250;2023-08-31T11:49:02;48664.28;;;-141.90;26.24
5298;BME280;14738;42.668;23.250;2023-08-31T11:51:32;48688.09;;;-141.90;26.62
5298;BME280;14738;42.668;23.250;2023-08-31T11:53:59;48654.34;;;-141.90;26.83
5298;BME280;14738;42.668;23.250;2023-08-31T11:56:25;48636.47;;;-141.90;27.14
5298;BME280;14738;42.668;23.250;2023-08-31T11:58:51;48610.66;;;-141.90;26.91
5298;BME280;14738;42.668;23.250;2023-08-31T12:01:21;48547.13;;;-141.90;26.97
5298;BME280;14738;42.668;23.250;2023-08-31T12:03:47;48656.34;;;-141.90;27.16
5298;BME280;14738;42.668;23.250;2023-08-31T12:06:22;48608.69;;;-141.90;27.25
5298;BME280;14738;42.668;23.250;2023-08-31T12:08:48;48588.84;;;-141.90;27.70
5298;BME280;14738;42.668;23.250;2023-08-31T12:11:14;48620.59;;;-141.90;27.57
5298;BME280;14738;42.668;23.250;2023-08-31T12:13:40;48604.72;;;-141.90;27.80
5298;BME280;14738;42.668;23.250;2023-08-31T12:16:11;48563.03;;;-141.90;28.57
5298;BME280;14738;42.668;23.250;2023-08-31T12:18:37;48642.44;;;-141.90;26.58
5298;BME280;14738;42.668;23.250;2023-08-31T12:21:03;48684.13;;;-141.90;25.89
5298;BME280;14738;42.668;23.250;2023-08-31T12:23:29;48660.31;;;-141.90;26.01
5298;BME280;14738;42.668;23.250;2023-08-31T12:25:55;48652.38;;;-141.90;26.61
5298;BME280;14738;42.668;23.250;2023-08-31T12:28:22;48624.56;;;-141.90;27.71
5298;BME280;14738;42.668;23.250;2023-08-31T12:30:49;48616.63;;;-141.90;26.85
5298;BME280;14738;42.668;23.250;2023-08-31T12:33:19;48648.38;;;-141.90;26.67
5298;BME280;14738;42.668;23.250;2023-08-31T12:35:45;48636.47;;;-141.90;27.27
5298;BME280;14738;42.668;23.250;2023-08-31T12:38:11;48652.38;;;-141.90;27.02
5298;BME280;14738;42.668;23.250;2023-08-31T12:40:37;48622.59;;;-141.90;26.99
5298;BME280;14738;42.668;23.250;2023-08-31T12:43:06;48660.31;;;-141.90;26.76
5298;BME280;14738;42.668;23.250;2023-08-31T12:45:32;48628.53;;;-141.90;26.24
5298;BME280;14738;42.668;23.250;2023-08-31T12:47:59;48612.66;;;-141.90;27.07
5298;BME280;14738;42.668;23.250;2023-08-31T12:50:25;48646.41;;;-141.90;26.12